Terminal Aerodrome Forecast
Issued by NWS

Home | Current Version | Previous Version | Text Only | Print | Product List | Glossary On
Versions: 1 2 3 4 5 6 7 8 9 10 11 12 13
000
FTUS45 KRIW 301700
TAFRKS
TAF
KRKS 301720Z 3018/3118 24017G22KT P6SM VCSH SCT100
     FM301900 25022G32KT P6SM VCTS SCT070CB BKN080
     FM310000 23012KT P6SM VCSH SCT060 SCT100
     FM310500 VRB09KT P6SM VCSH SCT060 BKN070
     FM311500 27009KT P6SM VCSH SCT060 BKN080=

USA.gov is the U.S. government's official web portal to all federal, state and local government web resources and services.